• °C
  • Pobieranie danych...
wx


PRINT OUT SECTION, show »

METAR EPBY 230800Z 30013KT 9999 SCT016 BKN024 07/02 Q1019=

METAR EPGD 230800Z 30020KT 9999 FEW041 07/M03 Q1016 =

METAR EPKK 230800Z 27008KT 9999 -SHRA SCT017TCU BKN030 06/02 Q1022 =

METAR EPKT 230800Z 28010KT 9999 SCT019 BKN022 BKN029 06/01 Q1022 =

METAR EPLB 230800Z 30011KT CAVOK 08/M01 Q1019 =

METAR EPLL 230800Z 25013G24KT 190V280 9999 SCT023CB BKN040 07/01
Q1020 =

METAR EPMO 230800Z 24017KT CAVOK 08/01 Q1018 =

METAR EPPO 230800Z 29012KT 9999 BKN016 07/02 Q1021 =

METAR EPRA 230800Z 27010KT 9999 SCT030 08/M02 Q1020=

METAR EPRZ 230800Z 28009KT 230V310 9999 FEW026 07/00 Q1021 =

METAR EPSC 230800Z 27011KT 250V320 9999 FEW018 BKN020 08/02 Q1021 =

METAR EPSY 230800Z 27011G21KT 220V310 CAVOK 06/M01 Q1016=

METAR EPWA 230800Z 26013KT 9999 FEW030 07/M00 Q1019 NOSIG=

METAR EPWR 230800Z 29014KT 9999 -SHRA BKN018CB BKN033 06/02 Q1023 =

METAR EPZG 230800Z 26009KT 9999 SCT020 BKN028 OVC037 07/03 Q1023 =
 METAR EPGD
Lokalizacja:EPGD Gdańsk Lech Wałęsa
Czas:08:00 UTC
Średni kierunek wiatru:300 °
Średnia prędkość wiatru:20 węzłów
Widzialność:10 km i więcej
Pierwsza warstwa chmur:1/8 do 2/8, wysokość podstawy 4100 FT
Temperatura powietrza:7 °C
Temperatura punktu rosy:-3 °C
Ciśnienie QNH:1016 hPa



IMGW-PIB Sites